aviador You're here:

GMFK Decoded Metar

ER-RACHIDIA in MOROCCO
Report Time2017-09-20 16:00:00
UTC Time2017-09-20 16:17:21
Flight Rules vfr VFR
Wind210° at 09 kt
W.Decomp.*RWY 13: 1.3 kt HW 8.9 kt RCW
W.Rank210° ranks 12
Current wind is above 210° avg. (6.9)
Visibility9999 m
Phenomena:N/A
Clouds:Few 030 Hf
Expected CloudBase > 15,600 ft AGL from Temp-Dew spread
CeilingNone
Temp32°C (ISA +24)
Dew Point-7°C (7% RH)
Heat Index29.8°C
AAT25.9°C
QNH1020 hPa
Density Alt5,938 ft
Elevation3,428 ft
Report Wrong Elevation
Raw Report
METAR GMFK 201600Z 21009KT 180V250 9999 FEW030 32/M07 Q1020 NOSIG=

Extra information for GMFK:More info

Metar Taf Metar & Taf Last 4 Metars F.Rules Stats Wind Profile Meteogram Temp Stats Airport Information Weather charts Add Link Nearby VenuesMetar ALERT Operation Metar Decoded Social comments